sensor_id;sensor_type;location;lat;lon;timestamp;P1;durP1;ratioP1;P2;durP2;ratioP2
78989;SDS011;68390;52.130;21.218;2023-04-02T00:01:43;7.72;;;5.30;;
78989;SDS011;68390;52.130;21.218;2023-04-02T00:04:11;7.65;;;5.28;;
78989;SDS011;68390;52.130;21.218;2023-04-02T00:06:40;8.65;;;5.70;;
78989;SDS011;68390;52.130;21.218;2023-04-02T00:11:37;9.43;;;5.82;;
78989;SDS011;68390;52.130;21.218;2023-04-02T00:14:14;9.80;;;4.85;;
78989;SDS011;68390;52.130;21.218;2023-04-02T00:16:49;7.75;;;5.15;;
78989;SDS011;68390;52.130;21.218;2023-04-02T00:19:22;8.65;;;5.82;;
78989;SDS011;68390;52.130;21.218;2023-04-02T00:21:52;8.93;;;5.70;;
78989;SDS011;68390;52.130;21.218;2023-04-02T00:24:19;7.88;;;5.68;;
78989;SDS011;68390;52.130;21.218;2023-04-02T00:26:47;8.60;;;5.35;;
78989;SDS011;68390;52.130;21.218;2023-04-02T00:29:14;10.88;;;6.65;;
78989;SDS011;68390;52.130;21.218;2023-04-02T00:31:41;10.40;;;6.18;;
78989;SDS011;68390;52.130;21.218;2023-04-02T00:34:14;11.45;;;6.85;;
78989;SDS011;68390;52.130;21.218;2023-04-02T00:36:43;12.00;;;7.00;;
78989;SDS011;68390;52.130;21.218;2023-04-02T00:39:21;12.55;;;6.72;;
78989;SDS011;68390;52.130;21.218;2023-04-02T00:41:50;11.27;;;6.55;;
78989;SDS011;68390;52.130;21.218;2023-04-02T00:44:22;13.05;;;7.22;;
78989;SDS011;68390;52.130;21.218;2023-04-02T00:46:53;14.75;;;7.55;;
78989;SDS011;68390;52.130;21.218;2023-04-02T00:49:34;12.25;;;7.07;;
78989;SDS011;68390;52.130;21.218;2023-04-02T00:52:03;15.05;;;8.50;;
78989;SDS011;68390;52.130;21.218;2023-04-02T00:54:33;14.52;;;8.70;;
78989;SDS011;68390;52.130;21.218;2023-04-02T00:57:09;12.50;;;7.97;;
78989;SDS011;68390;52.130;21.218;2023-04-02T00:59:52;13.90;;;7.68;;
78989;SDS011;68390;52.130;21.218;2023-04-02T01:02:23;15.43;;;8.75;;
78989;SDS011;68390;52.130;21.218;2023-04-02T01:07:22;9.30;;;6.18;;
78989;SDS011;68390;52.130;21.218;2023-04-02T01:10:13;12.40;;;7.47;;
78989;SDS011;68390;52.130;21.218;2023-04-02T01:13:02;11.98;;;7.28;;
78989;SDS011;68390;52.130;21.218;2023-04-02T01:24:42;9.98;;;5.90;;
78989;SDS011;68390;52.130;21.218;2023-04-02T01:27:15;10.52;;;6.82;;
78989;SDS011;68390;52.130;21.218;2023-04-02T01:29:46;10.77;;;6.43;;
78989;SDS011;68390;52.130;21.218;2023-04-02T01:32:16;10.15;;;6.78;;
78989;SDS011;68390;52.130;21.218;2023-04-02T01:34:46;11.70;;;7.13;;
78989;SDS011;68390;52.130;21.218;2023-04-02T01:40:02;11.05;;;6.80;;
78989;SDS011;68390;52.130;21.218;2023-04-02T01:45:26;10.27;;;6.55;;
78989;SDS011;68390;52.130;21.218;2023-04-02T01:47:53;9.27;;;6.10;;
78989;SDS011;68390;52.130;21.218;2023-04-02T01:52:44;10.87;;;6.40;;
78989;SDS011;68390;52.130;21.218;2023-04-02T01:55:12;8.98;;;6.20;;
78989;SDS011;68390;52.130;21.218;2023-04-02T01:57:42;9.90;;;6.32;;
78989;SDS011;68390;52.130;21.218;2023-04-02T02:00:15;9.18;;;6.00;;
78989;SDS011;68390;52.130;21.218;2023-04-02T02:02:41;9.50;;;6.40;;
78989;SDS011;68390;52.130;21.218;2023-04-02T02:05:14;10.55;;;7.00;;
78989;SDS011;68390;52.130;21.218;2023-04-02T02:08:02;9.63;;;6.35;;
78989;SDS011;68390;52.130;21.218;2023-04-02T02:10:32;10.18;;;5.82;;
78989;SDS011;68390;52.130;21.218;2023-04-02T02:13:00;10.52;;;6.10;;
78989;SDS011;68390;52.130;21.218;2023-04-02T02:15:26;7.78;;;5.82;;
78989;SDS011;68390;52.130;21.218;2023-04-02T02:17:59;8.68;;;5.25;;
78989;SDS011;68390;52.130;21.218;2023-04-02T02:20:28;7.60;;;5.25;;
78989;SDS011;68390;52.130;21.218;2023-04-02T02:22:56;7.82;;;5.78;;
78989;SDS011;68390;52.130;21.218;2023-04-02T02:25:23;8.35;;;5.28;;
78989;SDS011;68390;52.130;21.218;2023-04-02T02:30:27;6.90;;;4.95;;
78989;SDS011;68390;52.130;21.218;2023-04-02T02:35:39;10.57;;;5.63;;
78989;SDS011;68390;52.130;21.218;2023-04-02T02:38:26;8.98;;;6.22;;
78989;SDS011;68390;52.130;21.218;2023-04-02T02:40:55;8.02;;;6.03;;
78989;SDS011;68390;52.130;21.218;2023-04-02T02:43:25;9.77;;;5.80;;
78989;SDS011;68390;52.130;21.218;2023-04-02T02:45:51;10.02;;;6.32;;
78989;SDS011;68390;52.130;21.218;2023-04-02T02:48:20;10.27;;;5.95;;
78989;SDS011;68390;52.130;21.218;2023-04-02T02:50:50;9.30;;;6.00;;
78989;SDS011;68390;52.130;21.218;2023-04-02T02:53:19;8.13;;;5.70;;
78989;SDS011;68390;52.130;21.218;2023-04-02T02:55:48;10.57;;;6.18;;
78989;SDS011;68390;52.130;21.218;2023-04-02T02:58:18;7.50;;;5.18;;
78989;SDS011;68390;52.130;21.218;2023-04-02T03:00:47;9.30;;;6.05;;
78989;SDS011;68390;52.130;21.218;2023-04-02T03:03:13;9.80;;;6.38;;
78989;SDS011;68390;52.130;21.218;2023-04-02T03:05:43;10.38;;;6.63;;
78989;SDS011;68390;52.130;21.218;2023-04-02T03:08:15;10.30;;;6.13;;
78989;SDS011;68390;52.130;21.218;2023-04-02T03:13:31;9.25;;;6.45;;
78989;SDS011;68390;52.130;21.218;2023-04-02T03:23:46;9.82;;;6.90;;
78989;SDS011;68390;52.130;21.218;2023-04-02T03:26:18;11.38;;;7.35;;
78989;SDS011;68390;52.130;21.218;2023-04-02T03:28:57;10.60;;;7.15;;
78989;SDS011;68390;52.130;21.218;2023-04-02T03:31:34;10.30;;;7.07;;
78989;SDS011;68390;52.130;21.218;2023-04-02T03:36:50;11.10;;;6.93;;
78989;SDS011;68390;52.130;21.218;2023-04-02T03:39:24;9.93;;;6.65;;
78989;SDS011;68390;52.130;21.218;2023-04-02T03:42:12;8.15;;;6.00;;
78989;SDS011;68390;52.130;21.218;2023-04-02T03:44:50;11.18;;;6.93;;
78989;SDS011;68390;52.130;21.218;2023-04-02T03:50:05;10.63;;;7.03;;
78989;SDS011;68390;52.130;21.218;2023-04-02T03:52:38;11.07;;;6.15;;
78989;SDS011;68390;52.130;21.218;2023-04-02T03:55:17;9.65;;;6.78;;
78989;SDS011;68390;52.130;21.218;2023-04-02T03:57:46;10.43;;;6.35;;
78989;SDS011;68390;52.130;21.218;2023-04-02T04:03:40;10.70;;;6.25;;
78989;SDS011;68390;52.130;21.218;2023-04-02T04:06:01;11.00;;;6.03;;
78989;SDS011;68390;52.130;21.218;2023-04-02T04:08:33;9.73;;;5.93;;
78989;SDS011;68390;52.130;21.218;2023-04-02T04:11:07;9.13;;;5.72;;
78989;SDS011;68390;52.130;21.218;2023-04-02T04:13:42;11.40;;;6.30;;
78989;SDS011;68390;52.130;21.218;2023-04-02T04:16:13;10.43;;;6.55;;
78989;SDS011;68390;52.130;21.218;2023-04-02T04:18:46;9.23;;;6.05;;
78989;SDS011;68390;52.130;21.218;2023-04-02T04:21:26;9.73;;;6.28;;
78989;SDS011;68390;52.130;21.218;2023-04-02T04:24:02;8.77;;;6.13;;
78989;SDS011;68390;52.130;21.218;2023-04-02T04:29:46;9.68;;;6.63;;
78989;SDS011;68390;52.130;21.218;2023-04-02T04:32:38;11.10;;;7.32;;
78989;SDS011;68390;52.130;21.218;2023-04-02T04:35:30;11.75;;;7.60;;
78989;SDS011;68390;52.130;21.218;2023-04-02T04:38:32;11.68;;;7.47;;
78989;SDS011;68390;52.130;21.218;2023-04-02T04:41:18;8.43;;;5.63;;
78989;SDS011;68390;52.130;21.218;2023-04-02T04:43:52;9.30;;;5.95;;
78989;SDS011;68390;52.130;21.218;2023-04-02T04:46:27;11.23;;;6.78;;
78989;SDS011;68390;52.130;21.218;2023-04-02T04:51:50;10.90;;;6.85;;
78989;SDS011;68390;52.130;21.218;2023-04-02T04:54:18;12.50;;;7.22;;
78989;SDS011;68390;52.130;21.218;2023-04-02T04:56:48;10.57;;;7.13;;
78989;SDS011;68390;52.130;21.218;2023-04-02T04:59:19;11.35;;;7.45;;
78989;SDS011;68390;52.130;21.218;2023-04-02T05:01:58;13.23;;;7.80;;
78989;SDS011;68390;52.130;21.218;2023-04-02T05:07:08;11.82;;;7.85;;
78989;SDS011;68390;52.130;21.218;2023-04-02T05:09:41;11.93;;;8.02;;
78989;SDS011;68390;52.130;21.218;2023-04-02T05:12:31;12.40;;;7.75;;
78989;SDS011;68390;52.130;21.218;2023-04-02T05:23:34;15.68;;;9.13;;
78989;SDS011;68390;52.130;21.218;2023-04-02T05:25:33;13.85;;;7.95;;
78989;SDS011;68390;52.130;21.218;2023-04-02T05:30:46;17.20;;;9.57;;
78989;SDS011;68390;52.130;21.218;2023-04-02T05:35:57;14.77;;;9.25;;
78989;SDS011;68390;52.130;21.218;2023-04-02T05:38:28;15.15;;;8.60;;
78989;SDS011;68390;52.130;21.218;2023-04-02T05:41:04;16.15;;;9.57;;
78989;SDS011;68390;52.130;21.218;2023-04-02T05:43:38;15.98;;;9.15;;
78989;SDS011;68390;52.130;21.218;2023-04-02T05:46:14;19.58;;;10.70;;
78989;SDS011;68390;52.130;21.218;2023-04-02T05:48:42;19.67;;;11.13;;
78989;SDS011;68390;52.130;21.218;2023-04-02T05:51:16;21.90;;;11.50;;
78989;SDS011;68390;52.130;21.218;2023-04-02T05:53:50;20.48;;;10.80;;
78989;SDS011;68390;52.130;21.218;2023-04-02T05:56:21;22.30;;;12.25;;
78989;SDS011;68390;52.130;21.218;2023-04-02T05:58:53;21.42;;;11.43;;
78989;SDS011;68390;52.130;21.218;2023-04-02T06:01:29;22.25;;;12.25;;
78989;SDS011;68390;52.130;21.218;2023-04-02T06:04:22;19.67;;;11.43;;
78989;SDS011;68390;52.130;21.218;2023-04-02T06:07:02;21.52;;;11.20;;
78989;SDS011;68390;52.130;21.218;2023-04-02T06:09:37;20.05;;;11.50;;
78989;SDS011;68390;52.130;21.218;2023-04-02T06:14:59;19.98;;;10.57;;
78989;SDS011;68390;52.130;21.218;2023-04-02T06:17:25;20.77;;;10.77;;
78989;SDS011;68390;52.130;21.218;2023-04-02T06:19:51;17.45;;;10.30;;
78989;SDS011;68390;52.130;21.218;2023-04-02T06:25:00;21.92;;;11.43;;
78989;SDS011;68390;52.130;21.218;2023-04-02T06:27:29;19.70;;;11.15;;
78989;SDS011;68390;52.130;21.218;2023-04-02T06:29:58;19.42;;;9.85;;
78989;SDS011;68390;52.130;21.218;2023-04-02T06:32:29;19.08;;;10.38;;
78989;SDS011;68390;52.130;21.218;2023-04-02T06:34:55;19.05;;;10.95;;
78989;SDS011;68390;52.130;21.218;2023-04-02T06:37:39;17.83;;;10.13;;
78989;SDS011;68390;52.130;21.218;2023-04-02T06:42:55;19.33;;;10.45;;
78989;SDS011;68390;52.130;21.218;2023-04-02T06:45:26;20.20;;;10.90;;
78989;SDS011;68390;52.130;21.218;2023-04-02T06:47:54;20.55;;;11.30;;
78989;SDS011;68390;52.130;21.218;2023-04-02T06:52:55;18.85;;;10.35;;
78989;SDS011;68390;52.130;21.218;2023-04-02T06:58:16;14.40;;;8.82;;
78989;SDS011;68390;52.130;21.218;2023-04-02T07:00:44;15.32;;;9.27;;
78989;SDS011;68390;52.130;21.218;2023-04-02T07:05:41;15.35;;;8.48;;
78989;SDS011;68390;52.130;21.218;2023-04-02T07:08:07;16.70;;;9.23;;
78989;SDS011;68390;52.130;21.218;2023-04-02T07:10:33;13.30;;;8.38;;
78989;SDS011;68390;52.130;21.218;2023-04-02T07:12:58;14.35;;;8.10;;
78989;SDS011;68390;52.130;21.218;2023-04-02T07:15:26;12.85;;;7.68;;
78989;SDS011;68390;52.130;21.218;2023-04-02T07:17:52;13.07;;;7.13;;
78989;SDS011;68390;52.130;21.218;2023-04-02T07:20:31;11.80;;;7.65;;
78989;SDS011;68390;52.130;21.218;2023-04-02T07:23:01;13.50;;;7.13;;
78989;SDS011;68390;52.130;21.218;2023-04-02T07:25:27;11.40;;;7.15;;
78989;SDS011;68390;52.130;21.218;2023-04-02T07:27:53;13.63;;;8.07;;
78989;SDS011;68390;52.130;21.218;2023-04-02T07:30:19;12.10;;;7.32;;
78989;SDS011;68390;52.130;21.218;2023-04-02T07:32:45;11.93;;;7.88;;
78989;SDS011;68390;52.130;21.218;2023-04-02T07:35:11;12.00;;;7.25;;
78989;SDS011;68390;52.130;21.218;2023-04-02T07:37:37;9.88;;;6.40;;
78989;SDS011;68390;52.130;21.218;2023-04-02T07:40:06;11.32;;;7.43;;
78989;SDS011;68390;52.130;21.218;2023-04-02T07:42:39;12.52;;;7.78;;
78989;SDS011;68390;52.130;21.218;2023-04-02T07:45:05;12.45;;;8.70;;
78989;SDS011;68390;52.130;21.218;2023-04-02T07:47:31;12.48;;;8.10;;
78989;SDS011;68390;52.130;21.218;2023-04-02T07:49:56;12.90;;;8.18;;
78989;SDS011;68390;52.130;21.218;2023-04-02T07:52:22;11.75;;;7.43;;
78989;SDS011;68390;52.130;21.218;2023-04-02T07:54:47;11.70;;;7.23;;
78989;SDS011;68390;52.130;21.218;2023-04-02T07:57:12;11.63;;;7.57;;
78989;SDS011;68390;52.130;21.218;2023-04-02T07:59:38;13.25;;;7.85;;
78989;SDS011;68390;52.130;21.218;2023-04-02T08:02:03;11.30;;;7.53;;
78989;SDS011;68390;52.130;21.218;2023-04-02T08:04:29;9.70;;;6.18;;
78989;SDS011;68390;52.130;21.218;2023-04-02T08:06:55;10.23;;;6.85;;
78989;SDS011;68390;52.130;21.218;2023-04-02T08:09:20;9.93;;;6.45;;
78989;SDS011;68390;52.130;21.218;2023-04-02T08:11:46;9.50;;;6.45;;
78989;SDS011;68390;52.130;21.218;2023-04-02T08:14:11;9.13;;;6.00;;
78989;SDS011;68390;52.130;21.218;2023-04-02T08:19:10;8.55;;;5.72;;
78989;SDS011;68390;52.130;21.218;2023-04-02T08:21:35;9.73;;;6.05;;
78989;SDS011;68390;52.130;21.218;2023-04-02T08:24:01;12.77;;;7.03;;
78989;SDS011;68390;52.130;21.218;2023-04-02T08:26:27;8.52;;;5.45;;
78989;SDS011;68390;52.130;21.218;2023-04-02T08:28:53;8.63;;;5.40;;
78989;SDS011;68390;52.130;21.218;2023-04-02T08:31:18;8.27;;;5.27;;
78989;SDS011;68390;52.130;21.218;2023-04-02T08:33:43;8.65;;;5.38;;
78989;SDS011;68390;52.130;21.218;2023-04-02T08:36:14;8.63;;;4.78;;
78989;SDS011;68390;52.130;21.218;2023-04-02T08:38:41;9.07;;;5.35;;
78989;SDS011;68390;52.130;21.218;2023-04-02T08:41:06;7.80;;;5.50;;
78989;SDS011;68390;52.130;21.218;2023-04-02T08:48:58;8.45;;;4.90;;
78989;SDS011;68390;52.130;21.218;2023-04-02T08:51:30;7.03;;;4.63;;
78989;SDS011;68390;52.130;21.218;2023-04-02T08:54:02;8.10;;;5.15;;
78989;SDS011;68390;52.130;21.218;2023-04-02T08:56:54;6.63;;;4.45;;
78989;SDS011;68390;52.130;21.218;2023-04-02T08:59:41;7.90;;;5.20;;
78989;SDS011;68390;52.130;21.218;2023-04-02T09:02:14;8.40;;;4.82;;
78989;SDS011;68390;52.130;21.218;2023-04-02T09:04:45;8.15;;;5.00;;
78989;SDS011;68390;52.130;21.218;2023-04-02T09:07:11;8.02;;;4.90;;
78989;SDS011;68390;52.130;21.218;2023-04-02T09:09:40;7.82;;;5.15;;
78989;SDS011;68390;52.130;21.218;2023-04-02T09:12:10;9.48;;;5.72;;
78989;SDS011;68390;52.130;21.218;2023-04-02T09:14:43;7.32;;;5.07;;
78989;SDS011;68390;52.130;21.218;2023-04-02T09:17:20;8.98;;;5.60;;
78989;SDS011;68390;52.130;21.218;2023-04-02T09:20:12;9.35;;;5.57;;
78989;SDS011;68390;52.130;21.218;2023-04-02T09:22:46;10.40;;;6.25;;
78989;SDS011;68390;52.130;21.218;2023-04-02T09:25:19;10.77;;;5.97;;
78989;SDS011;68390;52.130;21.218;2023-04-02T09:27:48;8.80;;;5.45;;
78989;SDS011;68390;52.130;21.218;2023-04-02T09:30:28;8.35;;;5.13;;
78989;SDS011;68390;52.130;21.218;2023-04-02T09:33:07;7.18;;;4.93;;
78989;SDS011;68390;52.130;21.218;2023-04-02T09:35:36;7.78;;;4.95;;
78989;SDS011;68390;52.130;21.218;2023-04-02T09:38:19;8.07;;;5.40;;
78989;SDS011;68390;52.130;21.218;2023-04-02T09:41:06;7.43;;;5.00;;
78989;SDS011;68390;52.130;21.218;2023-04-02T09:43:43;8.57;;;5.50;;
78989;SDS011;68390;52.130;21.218;2023-04-02T09:48:59;8.52;;;5.18;;
78989;SDS011;68390;52.130;21.218;2023-04-02T09:51:29;9.20;;;5.25;;
78989;SDS011;68390;52.130;21.218;2023-04-02T09:56:26;7.38;;;5.05;;
78989;SDS011;68390;52.130;21.218;2023-04-02T10:01:31;7.32;;;5.00;;
78989;SDS011;68390;52.130;21.218;2023-04-02T10:03:59;19.05;;;12.38;;
78989;SDS011;68390;52.130;21.218;2023-04-02T10:06:27;10.38;;;7.50;;
78989;SDS011;68390;52.130;21.218;2023-04-02T10:08:54;6.07;;;4.43;;
78989;SDS011;68390;52.130;21.218;2023-04-02T10:13:55;7.78;;;5.13;;
78989;SDS011;68390;52.130;21.218;2023-04-02T10:18:56;8.77;;;4.90;;
78989;SDS011;68390;52.130;21.218;2023-04-02T10:21:26;7.05;;;4.55;;
78989;SDS011;68390;52.130;21.218;2023-04-02T10:23:55;6.50;;;4.40;;
78989;SDS011;68390;52.130;21.218;2023-04-02T10:26:38;8.77;;;5.43;;
78989;SDS011;68390;52.130;21.218;2023-04-02T10:38:11;7.57;;;4.20;;
78989;SDS011;68390;52.130;21.218;2023-04-02T10:40:38;10.52;;;6.15;;
78989;SDS011;68390;52.130;21.218;2023-04-02T10:45:50;17.38;;;9.90;;
78989;SDS011;68390;52.130;21.218;2023-04-02T10:57:46;6.82;;;4.60;;
78989;SDS011;68390;52.130;21.218;2023-04-02T11:02:41;7.10;;;4.45;;
78989;SDS011;68390;52.130;21.218;2023-04-02T11:05:17;7.47;;;4.85;;
78989;SDS011;68390;52.130;21.218;2023-04-02T11:07:57;9.07;;;5.55;;
78989;SDS011;68390;52.130;21.218;2023-04-02T11:10:27;8.50;;;5.60;;
78989;SDS011;68390;52.130;21.218;2023-04-02T11:12:56;10.80;;;6.38;;
78989;SDS011;68390;52.130;21.218;2023-04-02T11:15:27;8.70;;;5.72;;
78989;SDS011;68390;52.130;21.218;2023-04-02T11:17:53;8.65;;;5.55;;
78989;SDS011;68390;52.130;21.218;2023-04-02T11:23:13;8.25;;;5.70;;
78989;SDS011;68390;52.130;21.218;2023-04-02T11:25:42;7.95;;;6.00;;
78989;SDS011;68390;52.130;21.218;2023-04-02T11:30:54;19.00;;;11.10;;
78989;SDS011;68390;52.130;21.218;2023-04-02T11:35:58;8.82;;;6.20;;
78989;SDS011;68390;52.130;21.218;2023-04-02T11:46:07;14.73;;;8.68;;
78989;SDS011;68390;52.130;21.218;2023-04-02T11:53:16;13.50;;;8.68;;
78989;SDS011;68390;52.130;21.218;2023-04-02T11:55:23;14.98;;;9.65;;
78989;SDS011;68390;52.130;21.218;2023-04-02T12:06:26;13.30;;;8.80;;
78989;SDS011;68390;52.130;21.218;2023-04-02T12:11:51;12.65;;;8.32;;
78989;SDS011;68390;52.130;21.218;2023-04-02T12:17:04;14.43;;;8.30;;
78989;SDS011;68390;52.130;21.218;2023-04-02T12:19:45;12.95;;;7.97;;
78989;SDS011;68390;52.130;21.218;2023-04-02T12:22:19;13.68;;;8.15;;
78989;SDS011;68390;52.130;21.218;2023-04-02T12:24:50;13.13;;;7.60;;
78989;SDS011;68390;52.130;21.218;2023-04-02T12:27:20;11.73;;;6.97;;
78989;SDS011;68390;52.130;21.218;2023-04-02T12:29:51;11.93;;;7.60;;
78989;SDS011;68390;52.130;21.218;2023-04-02T12:32:34;11.20;;;6.93;;
78989;SDS011;68390;52.130;21.218;2023-04-02T12:34:59;12.38;;;7.55;;
78989;SDS011;68390;52.130;21.218;2023-04-02T12:37:27;9.85;;;6.82;;
78989;SDS011;68390;52.130;21.218;2023-04-02T12:39:55;9.50;;;7.00;;
78989;SDS011;68390;52.130;21.218;2023-04-02T12:42:30;13.57;;;8.68;;
78989;SDS011;68390;52.130;21.218;2023-04-02T12:44:58;15.20;;;10.88;;
78989;SDS011;68390;52.130;21.218;2023-04-02T12:47:24;21.30;;;12.73;;
78989;SDS011;68390;52.130;21.218;2023-04-02T12:49:50;16.65;;;9.25;;
78989;SDS011;68390;52.130;21.218;2023-04-02T12:52:18;12.80;;;8.10;;
78989;SDS011;68390;52.130;21.218;2023-04-02T12:54:52;12.05;;;7.70;;
78989;SDS011;68390;52.130;21.218;2023-04-02T12:59:51;25.70;;;14.52;;
78989;SDS011;68390;52.130;21.218;2023-04-02T13:02:21;10.68;;;6.78;;
78989;SDS011;68390;52.130;21.218;2023-04-02T13:04:52;9.63;;;6.88;;
78989;SDS011;68390;52.130;21.218;2023-04-02T13:07:20;10.07;;;6.60;;
78989;SDS011;68390;52.130;21.218;2023-04-02T13:09:49;11.70;;;6.75;;
78989;SDS011;68390;52.130;21.218;2023-04-02T13:12:23;14.40;;;8.38;;
78989;SDS011;68390;52.130;21.218;2023-04-02T13:14:57;8.10;;;5.65;;
78989;SDS011;68390;52.130;21.218;2023-04-02T13:17:44;10.18;;;7.45;;
78989;SDS011;68390;52.130;21.218;2023-04-02T13:23:21;12.70;;;7.95;;
78989;SDS011;68390;52.130;21.218;2023-04-02T13:25:55;12.90;;;8.50;;
78989;SDS011;68390;52.130;21.218;2023-04-02T13:28:22;12.25;;;8.18;;
78989;SDS011;68390;52.130;21.218;2023-04-02T13:30:48;11.65;;;7.53;;
78989;SDS011;68390;52.130;21.218;2023-04-02T13:33:13;13.05;;;8.75;;
78989;SDS011;68390;52.130;21.218;2023-04-02T13:35:40;11.05;;;7.07;;
78989;SDS011;68390;52.130;21.218;2023-04-02T13:38:06;9.93;;;6.68;;
78989;SDS011;68390;52.130;21.218;2023-04-02T13:40:33;10.93;;;6.80;;
78989;SDS011;68390;52.130;21.218;2023-04-02T13:42:59;10.48;;;6.68;;
78989;SDS011;68390;52.130;21.218;2023-04-02T13:45:27;9.35;;;6.00;;
78989;SDS011;68390;52.130;21.218;2023-04-02T13:47:56;9.35;;;5.38;;
78989;SDS011;68390;52.130;21.218;2023-04-02T13:50:24;9.15;;;6.05;;
78989;SDS011;68390;52.130;21.218;2023-04-02T13:52:51;9.02;;;6.10;;
78989;SDS011;68390;52.130;21.218;2023-04-02T13:55:18;11.38;;;7.43;;
78989;SDS011;68390;52.130;21.218;2023-04-02T13:57:46;11.40;;;6.93;;
78989;SDS011;68390;52.130;21.218;2023-04-02T14:00:12;12.45;;;6.85;;
78989;SDS011;68390;52.130;21.218;2023-04-02T14:02:39;10.23;;;6.85;;
78989;SDS011;68390;52.130;21.218;2023-04-02T14:08:08;10.25;;;5.95;;
78989;SDS011;68390;52.130;21.218;2023-04-02T14:19:16;6.38;;;4.07;;
78989;SDS011;68390;52.130;21.218;2023-04-02T14:21:56;7.00;;;4.90;;
78989;SDS011;68390;52.130;21.218;2023-04-02T14:24:36;6.85;;;4.40;;
78989;SDS011;68390;52.130;21.218;2023-04-02T14:30:00;6.25;;;4.40;;
78989;SDS011;68390;52.130;21.218;2023-04-02T14:32:40;8.45;;;5.18;;
78989;SDS011;68390;52.130;21.218;2023-04-02T14:35:28;6.50;;;3.88;;
78989;SDS011;68390;52.130;21.218;2023-04-02T14:40:44;6.20;;;4.05;;
78989;SDS011;68390;52.130;21.218;2023-04-02T14:43:27;6.90;;;4.40;;
78989;SDS011;68390;52.130;21.218;2023-04-02T14:51:22;6.00;;;4.28;;
78989;SDS011;68390;52.130;21.218;2023-04-02T14:56:35;7.97;;;4.68;;
78989;SDS011;68390;52.130;21.218;2023-04-02T14:59:33;7.82;;;5.50;;
78989;SDS011;68390;52.130;21.218;2023-04-02T15:02:07;8.32;;;5.32;;
78989;SDS011;68390;52.130;21.218;2023-04-02T15:04:41;9.10;;;5.18;;
78989;SDS011;68390;52.130;21.218;2023-04-02T15:07:18;7.70;;;4.45;;
78989;SDS011;68390;52.130;21.218;2023-04-02T15:09:50;7.85;;;4.90;;
78989;SDS011;68390;52.130;21.218;2023-04-02T15:12:24;6.93;;;4.65;;
78989;SDS011;68390;52.130;21.218;2023-04-02T15:15:01;7.55;;;4.60;;
78989;SDS011;68390;52.130;21.218;2023-04-02T15:17:37;6.75;;;4.63;;
78989;SDS011;68390;52.130;21.218;2023-04-02T15:20:13;5.78;;;4.07;;
78989;SDS011;68390;52.130;21.218;2023-04-02T15:30:50;7.75;;;5.20;;
78989;SDS011;68390;52.130;21.218;2023-04-02T15:39:00;7.30;;;4.65;;
78989;SDS011;68390;52.130;21.218;2023-04-02T15:41:39;8.10;;;5.50;;
78989;SDS011;68390;52.130;21.218;2023-04-02T15:44:13;8.00;;;4.78;;
78989;SDS011;68390;52.130;21.218;2023-04-02T15:46:54;8.20;;;5.57;;
78989;SDS011;68390;52.130;21.218;2023-04-02T15:49:41;8.13;;;5.35;;
78989;SDS011;68390;52.130;21.218;2023-04-02T15:52:35;9.43;;;6.65;;
78989;SDS011;68390;52.130;21.218;2023-04-02T15:58:14;8.48;;;5.22;;
78989;SDS011;68390;52.130;21.218;2023-04-02T16:06:57;9.80;;;6.20;;
78989;SDS011;68390;52.130;21.218;2023-04-02T16:12:16;7.93;;;5.78;;
78989;SDS011;68390;52.130;21.218;2023-04-02T16:14:44;8.68;;;5.80;;
78989;SDS011;68390;52.130;21.218;2023-04-02T16:17:14;11.30;;;7.10;;
78989;SDS011;68390;52.130;21.218;2023-04-02T16:19:56;11.93;;;8.00;;
78989;SDS011;68390;52.130;21.218;2023-04-02T16:22:29;12.38;;;7.70;;
78989;SDS011;68390;52.130;21.218;2023-04-02T16:30:44;13.23;;;7.32;;
78989;SDS011;68390;52.130;21.218;2023-04-02T16:36:21;14.15;;;7.90;;
78989;SDS011;68390;52.130;21.218;2023-04-02T16:39:12;19.73;;;10.13;;
78989;SDS011;68390;52.130;21.218;2023-04-02T16:41:45;18.42;;;10.70;;
78989;SDS011;68390;52.130;21.218;2023-04-02T16:44:58;13.32;;;7.05;;
78989;SDS011;68390;52.130;21.218;2023-04-02T16:55:47;16.67;;;9.00;;
78989;SDS011;68390;52.130;21.218;2023-04-02T16:58:38;17.05;;;11.13;;
78989;SDS011;68390;52.130;21.218;2023-04-02T17:01:24;18.13;;;9.75;;
78989;SDS011;68390;52.130;21.218;2023-04-02T17:04:04;11.25;;;7.32;;
78989;SDS011;68390;52.130;21.218;2023-04-02T17:06:47;12.52;;;9.18;;
78989;SDS011;68390;52.130;21.218;2023-04-02T17:09:29;11.70;;;7.47;;
78989;SDS011;68390;52.130;21.218;2023-04-02T17:14:56;9.85;;;7.32;;
78989;SDS011;68390;52.130;21.218;2023-04-02T17:17:24;14.68;;;9.05;;
78989;SDS011;68390;52.130;21.218;2023-04-02T17:19:50;21.80;;;13.82;;
78989;SDS011;68390;52.130;21.218;2023-04-02T17:22:20;12.50;;;9.10;;
78989;SDS011;68390;52.130;21.218;2023-04-02T17:24:55;13.57;;;9.77;;
78989;SDS011;68390;52.130;21.218;2023-04-02T17:30:03;9.60;;;6.90;;
78989;SDS011;68390;52.130;21.218;2023-04-02T17:32:36;14.43;;;8.30;;
78989;SDS011;68390;52.130;21.218;2023-04-02T17:37:50;11.50;;;6.80;;
78989;SDS011;68390;52.130;21.218;2023-04-02T17:43:11;11.25;;;7.55;;
78989;SDS011;68390;52.130;21.218;2023-04-02T17:45:51;12.45;;;8.00;;
78989;SDS011;68390;52.130;21.218;2023-04-02T17:56:28;14.35;;;8.88;;
78989;SDS011;68390;52.130;21.218;2023-04-02T18:07:09;11.88;;;6.53;;
78989;SDS011;68390;52.130;21.218;2023-04-02T18:10:00;12.88;;;7.63;;
78989;SDS011;68390;52.130;21.218;2023-04-02T18:12:56;11.00;;;6.40;;
78989;SDS011;68390;52.130;21.218;2023-04-02T18:15:44;12.50;;;7.30;;
78989;SDS011;68390;52.130;21.218;2023-04-02T18:18:20;11.45;;;7.20;;
78989;SDS011;68390;52.130;21.218;2023-04-02T18:29:36;9.55;;;5.90;;
78989;SDS011;68390;52.130;21.218;2023-04-02T18:34:43;10.80;;;6.15;;
78989;SDS011;68390;52.130;21.218;2023-04-02T18:37:22;11.18;;;6.65;;
78989;SDS011;68390;52.130;21.218;2023-04-02T18:48:09;10.18;;;5.18;;
78989;SDS011;68390;52.130;21.218;2023-04-02T18:50:39;12.48;;;5.80;;
78989;SDS011;68390;52.130;21.218;2023-04-02T18:53:10;14.55;;;8.05;;
78989;SDS011;68390;52.130;21.218;2023-04-02T18:55:38;10.43;;;6.53;;
78989;SDS011;68390;52.130;21.218;2023-04-02T18:58:11;17.67;;;7.35;;
78989;SDS011;68390;52.130;21.218;2023-04-02T19:00:42;21.17;;;8.85;;
78989;SDS011;68390;52.130;21.218;2023-04-02T19:03:17;19.05;;;10.30;;
78989;SDS011;68390;52.130;21.218;2023-04-02T19:05:53;14.02;;;7.47;;
78989;SDS011;68390;52.130;21.218;2023-04-02T19:08:30;13.55;;;7.53;;
78989;SDS011;68390;52.130;21.218;2023-04-02T19:11:05;9.00;;;6.10;;
78989;SDS011;68390;52.130;21.218;2023-04-02T19:13:36;9.40;;;5.75;;
78989;SDS011;68390;52.130;21.218;2023-04-02T19:16:23;10.45;;;7.05;;
78989;SDS011;68390;52.130;21.218;2023-04-02T19:22:13;11.00;;;7.13;;
78989;SDS011;68390;52.130;21.218;2023-04-02T19:33:31;9.93;;;6.43;;
78989;SDS011;68390;52.130;21.218;2023-04-02T19:41:46;11.88;;;6.28;;
78989;SDS011;68390;52.130;21.218;2023-04-02T19:44:16;10.65;;;7.05;;
78989;SDS011;68390;52.130;21.218;2023-04-02T19:46:42;8.45;;;4.78;;
78989;SDS011;68390;52.130;21.218;2023-04-02T19:51:35;8.93;;;4.97;;
78989;SDS011;68390;52.130;21.218;2023-04-02T19:54:01;8.77;;;5.07;;
78989;SDS011;68390;52.130;21.218;2023-04-02T19:56:26;7.13;;;4.15;;
78989;SDS011;68390;52.130;21.218;2023-04-02T19:58:52;6.45;;;4.00;;
78989;SDS011;68390;52.130;21.218;2023-04-02T20:01:18;7.20;;;4.50;;